createdAt,value
2023-11-23T00:00:33.982Z,64.20
2023-11-23T00:03:01.158Z,64.30
2023-11-23T00:05:30.124Z,64.30
2023-11-23T00:07:57.122Z,64.00
2023-11-23T00:10:24.112Z,64.20
2023-11-23T00:12:51.447Z,64.00
2023-11-23T00:15:18.486Z,64.00
2023-11-23T00:17:45.616Z,63.90
2023-11-23T00:20:12.718Z,63.90
2023-11-23T00:22:39.718Z,63.90
2023-11-23T00:25:06.746Z,63.90
2023-11-23T00:27:35.677Z,63.80
2023-11-23T00:30:03.274Z,63.80
2023-11-23T00:32:30.302Z,63.90
2023-11-23T00:34:57.211Z,63.80
2023-11-23T00:37:24.284Z,63.60
2023-11-23T00:39:51.302Z,63.80
2023-11-23T00:42:18.291Z,63.80
2023-11-23T00:44:45.393Z,63.80
2023-11-23T00:47:13.058Z,63.70
2023-11-23T00:49:40.043Z,63.70
2023-11-23T00:52:07.113Z,63.70
2023-11-23T00:54:39.388Z,63.50
2023-11-23T00:57:08.803Z,63.40
2023-11-23T00:59:35.915Z,63.70
2023-11-23T01:02:03.668Z,63.70
2023-11-23T01:04:30.917Z,63.60
2023-11-23T01:06:59.388Z,63.50
2023-11-23T01:09:27.505Z,63.60
2023-11-23T01:11:55.639Z,63.70
2023-11-23T01:14:22.690Z,63.50
2023-11-23T01:16:49.705Z,63.40
2023-11-23T01:19:16.802Z,63.40
2023-11-23T01:21:43.774Z,63.40
2023-11-23T01:24:12.462Z,63.30
2023-11-23T01:26:39.543Z,63.20
2023-11-23T01:29:06.510Z,63.30
2023-11-23T01:31:33.543Z,63.30
2023-11-23T01:34:01.543Z,63.30
2023-11-23T01:36:28.830Z,63.20
2023-11-23T01:38:55.804Z,63.00
2023-11-23T01:41:23.350Z,63.00
2023-11-23T01:43:50.342Z,63.10
2023-11-23T01:46:17.399Z,63.30
2023-11-23T01:48:44.713Z,63.40
2023-11-23T01:51:13.811Z,63.40
2023-11-23T01:53:41.841Z,63.40
2023-11-23T01:56:10.165Z,63.40
2023-11-23T01:58:37.276Z,63.30
2023-11-23T02:01:05.343Z,63.40
2023-11-23T02:03:32.836Z,63.50
2023-11-23T02:06:00.182Z,63.50
2023-11-23T02:08:27.340Z,63.50
2023-11-23T02:10:54.364Z,63.40
2023-11-23T02:13:21.333Z,63.30
2023-11-23T02:15:49.247Z,63.40
2023-11-23T02:18:16.387Z,63.30
2023-11-23T02:20:46.077Z,63.20
2023-11-23T02:23:13.055Z,63.20
2023-11-23T02:25:40.084Z,63.20
2023-11-23T02:28:08.180Z,63.10
2023-11-23T02:30:35.247Z,63.20
2023-11-23T02:33:03.106Z,63.10
2023-11-23T02:35:30.110Z,63.10
2023-11-23T02:37:57.103Z,63.00
2023-11-23T02:40:24.099Z,63.10
2023-11-23T02:42:51.327Z,63.10
2023-11-23T02:45:18.431Z,63.20
2023-11-23T02:47:45.571Z,63.20
2023-11-23T02:50:13.087Z,63.10
2023-11-23T02:52:40.115Z,63.00
2023-11-23T02:55:08.743Z,63.00
2023-11-23T02:57:35.971Z,63.10
2023-11-23T03:00:02.949Z,63.20
2023-11-23T03:02:30.066Z,63.10
2023-11-23T03:04:57.177Z,63.20
2023-11-23T03:07:24.422Z,63.30
2023-11-23T03:09:51.441Z,63.40
2023-11-23T03:12:18.493Z,63.40
2023-11-23T03:14:45.565Z,63.40
2023-11-23T03:17:12.735Z,63.30
2023-11-23T03:19:39.875Z,63.40
2023-11-23T03:22:08.336Z,63.50
2023-11-23T03:24:35.305Z,63.60
2023-11-23T03:27:02.484Z,63.80
2023-11-23T03:29:29.921Z,63.90
2023-11-23T03:31:56.907Z,63.80
2023-11-23T03:34:23.935Z,63.80
2023-11-23T03:36:50.903Z,63.80
2023-11-23T03:39:19.987Z,63.80
2023-11-23T03:41:48.868Z,63.80
2023-11-23T03:44:16.049Z,63.70
2023-11-23T03:46:43.255Z,63.70
2023-11-23T03:49:10.437Z,63.50
2023-11-23T03:51:37.971Z,63.60
2023-11-23T03:54:05.360Z,63.70
2023-11-23T03:56:32.505Z,63.80
2023-11-23T03:58:59.519Z,63.80
2023-11-23T04:01:26.485Z,63.90
2023-11-23T04:03:53.642Z,64.00
2023-11-23T04:06:20.877Z,64.20
2023-11-23T04:08:49.698Z,64.30
2023-11-23T04:11:16.866Z,64.40
2023-11-23T04:13:43.985Z,64.30
2023-11-23T04:16:10.939Z,64.40
2023-11-23T04:18:38.389Z,64.30
2023-11-23T04:21:05.612Z,64.40
2023-11-23T04:23:32.757Z,64.50
2023-11-23T04:25:59.834Z,64.50
2023-11-23T04:28:27.341Z,64.50
2023-11-23T04:30:55.106Z,64.50
2023-11-23T04:33:24.641Z,64.50
2023-11-23T04:35:51.846Z,64.50
2023-11-23T04:38:18.969Z,64.50
2023-11-23T04:40:45.908Z,64.50
2023-11-23T04:43:13.559Z,64.50
2023-11-23T04:45:41.170Z,64.50
2023-11-23T04:48:08.788Z,64.50
2023-11-23T04:50:38.371Z,64.50
2023-11-23T04:53:05.337Z,64.50
2023-11-23T04:55:32.599Z,64.40
2023-11-23T04:57:59.477Z,64.40
2023-11-23T05:00:26.836Z,64.50
2023-11-23T05:02:54.701Z,64.50
2023-11-23T05:05:22.191Z,64.40
2023-11-23T05:07:49.154Z,64.40
2023-11-23T05:10:17.429Z,64.20
2023-11-23T05:12:44.404Z,64.30
2023-11-23T05:15:11.682Z,64.40
2023-11-23T05:17:38.986Z,64.30
2023-11-23T05:20:06.501Z,64.20
2023-11-23T05:22:33.410Z,64.20
2023-11-23T05:25:00.437Z,64.10
2023-11-23T05:27:27.770Z,64.30
2023-11-23T05:29:54.826Z,64.30
2023-11-23T05:32:21.833Z,64.30
2023-11-23T05:34:48.896Z,64.30
2023-11-23T05:37:15.843Z,64.30
2023-11-23T05:39:44.565Z,64.10
2023-11-23T05:42:12.232Z,64.10
2023-11-23T05:44:39.574Z,64.10
2023-11-23T05:47:07.047Z,64.10
2023-11-23T05:49:34.228Z,64.30
2023-11-23T05:52:01.484Z,64.20
2023-11-23T05:54:28.898Z,64.30
2023-11-23T05:56:55.955Z,64.40
2023-11-23T05:59:22.901Z,64.40
2023-11-23T06:01:50.042Z,64.40
2023-11-23T06:04:17.355Z,64.50
2023-11-23T06:06:44.592Z,64.40
2023-11-23T06:09:15.168Z,64.40
2023-11-23T06:11:42.182Z,64.50
2023-11-23T06:14:09.146Z,64.50
2023-11-23T06:16:36.046Z,64.50
2023-11-23T06:19:04.175Z,64.60
2023-11-23T06:21:32.107Z,64.60
2023-11-23T06:23:59.702Z,64.50
2023-11-23T06:26:26.760Z,64.40
2023-11-23T06:28:53.736Z,64.30
2023-11-23T06:31:20.968Z,64.30
2023-11-23T06:33:49.446Z,64.30
2023-11-23T06:36:17.575Z,64.30
2023-11-23T06:38:44.814Z,64.30
2023-11-23T06:41:21.622Z,64.30
2023-11-23T06:43:53.068Z,64.40
2023-11-23T06:46:21.661Z,64.30
2023-11-23T06:48:48.867Z,64.30
2023-11-23T06:51:16.178Z,64.30
2023-11-23T06:53:48.048Z,64.20
2023-11-23T06:56:15.709Z,64.30
2023-11-23T06:58:47.883Z,64.40
2023-11-23T07:01:15.624Z,64.40
2023-11-23T07:03:43.342Z,64.30
2023-11-23T07:06:10.713Z,64.20
2023-11-23T07:08:38.826Z,64.30
2023-11-23T07:11:05.904Z,64.40
2023-11-23T07:13:36.253Z,64.50
2023-11-23T07:16:04.454Z,64.50
2023-11-23T07:18:32.198Z,64.50
2023-11-23T07:20:59.358Z,64.50
2023-11-23T07:23:26.464Z,64.30
2023-11-23T07:25:54.239Z,64.40
2023-11-23T07:28:23.390Z,64.50
2023-11-23T07:30:50.629Z,64.60
2023-11-23T07:33:19.168Z,64.60
2023-11-23T07:35:50.906Z,64.60
2023-11-23T07:38:19.723Z,64.60
2023-11-23T07:40:46.962Z,64.70
2023-11-23T07:43:14.002Z,64.50
2023-11-23T07:45:41.093Z,64.50
2023-11-23T07:48:11.239Z,64.50
2023-11-23T07:50:38.658Z,64.60
2023-11-23T07:53:05.898Z,64.60
2023-11-23T07:55:32.983Z,64.70
2023-11-23T07:58:00.076Z,64.70
2023-11-23T08:00:27.408Z,64.70
2023-11-23T08:02:56.165Z,64.70
2023-11-23T08:05:24.330Z,64.50
2023-11-23T08:07:51.906Z,64.60
2023-11-23T08:10:18.910Z,64.60
2023-11-23T08:12:46.044Z,64.60
2023-11-23T08:15:14.489Z,64.60
2023-11-23T08:17:51.148Z,64.70
2023-11-23T08:20:28.297Z,64.70
2023-11-23T08:22:55.557Z,64.60
2023-11-23T08:25:22.524Z,64.50
2023-11-23T08:27:49.516Z,64.40
2023-11-23T08:30:17.037Z,64.40
2023-11-23T08:32:44.259Z,64.40
2023-11-23T08:35:11.346Z,64.30
2023-11-23T08:37:38.725Z,64.30
2023-11-23T08:40:06.973Z,64.30
2023-11-23T08:42:34.799Z,64.40
2023-11-23T08:45:02.660Z,64.40
2023-11-23T08:47:29.818Z,64.40
2023-11-23T08:49:56.956Z,64.40
2023-11-23T08:52:24.150Z,64.30
2023-11-23T08:54:51.192Z,64.30
2023-11-23T08:57:18.235Z,64.40
2023-11-23T08:59:46.398Z,64.30
2023-11-23T09:02:20.136Z,64.10
2023-11-23T09:04:49.755Z,64.00
2023-11-23T09:07:17.590Z,64.10
2023-11-23T09:09:44.640Z,64.20
2023-11-23T09:12:12.014Z,64.20
2023-11-23T09:14:47.068Z,64.20
2023-11-23T09:17:17.257Z,64.10
2023-11-23T09:19:44.235Z,64.10
2023-11-23T09:22:12.255Z,64.00
2023-11-23T09:24:40.354Z,64.10
2023-11-23T09:27:07.826Z,64.20
2023-11-23T09:29:35.025Z,64.20
2023-11-23T09:32:04.340Z,64.40
2023-11-23T09:34:31.470Z,64.40
2023-11-23T09:36:58.507Z,64.30
2023-11-23T09:39:25.600Z,64.30
2023-11-23T09:41:54.347Z,64.30
2023-11-23T09:44:21.367Z,64.40
2023-11-23T09:46:49.262Z,64.50
2023-11-23T09:49:16.860Z,64.50
2023-11-23T09:51:44.557Z,64.60
2023-11-23T09:54:15.510Z,64.50
2023-11-23T09:56:42.508Z,64.50
2023-11-23T09:59:09.549Z,64.60
2023-11-23T10:01:39.359Z,64.60
2023-11-23T10:04:07.443Z,64.60
2023-11-23T10:06:34.636Z,64.50
2023-11-23T10:09:01.624Z,64.70
2023-11-23T10:11:29.757Z,64.70
2023-11-23T10:13:56.685Z,64.70
2023-11-23T10:16:23.731Z,64.90
2023-11-23T10:18:50.771Z,64.80
2023-11-23T10:21:17.764Z,64.70
2023-11-23T10:23:44.996Z,64.80
2023-11-23T10:26:12.009Z,64.90
2023-11-23T10:28:40.009Z,64.90
2023-11-23T10:31:07.724Z,64.90
2023-11-23T10:33:39.018Z,64.90
2023-11-23T10:36:10.041Z,64.80
2023-11-23T10:38:44.230Z,64.60
2023-11-23T10:41:13.144Z,64.60
2023-11-23T10:43:43.486Z,64.70
2023-11-23T10:46:11.480Z,64.60
2023-11-23T10:48:39.737Z,64.60
2023-11-23T10:51:07.701Z,64.60
2023-11-23T10:53:34.701Z,64.50
2023-11-23T10:56:06.327Z,64.30
2023-11-23T10:58:38.234Z,64.30
2023-11-23T11:01:08.997Z,64.40
2023-11-23T11:03:36.865Z,64.50
2023-11-23T11:06:12.001Z,64.70
2023-11-23T11:08:46.331Z,64.70
2023-11-23T11:11:17.575Z,64.50
2023-11-23T11:13:44.615Z,64.30
2023-11-23T11:16:16.016Z,64.30
2023-11-23T11:18:55.332Z,64.30
2023-11-23T11:21:23.025Z,64.40
2023-11-23T11:23:53.825Z,64.40
2023-11-23T11:26:22.873Z,64.40
2023-11-23T11:28:56.922Z,64.40
2023-11-23T11:31:37.503Z,64.10
2023-11-23T11:34:15.896Z,64.10
2023-11-23T11:36:43.068Z,64.20
2023-11-23T11:39:12.398Z,64.20
2023-11-23T11:41:39.967Z,64.20
2023-11-23T11:44:07.670Z,64.00
2023-11-23T11:46:38.691Z,64.00
2023-11-23T11:49:06.550Z,64.00
2023-11-23T11:51:34.032Z,64.00
2023-11-23T11:54:02.346Z,63.90
2023-11-23T11:56:31.391Z,63.50
2023-11-23T11:59:00.384Z,63.30
2023-11-23T12:01:27.620Z,63.20
2023-11-23T12:03:54.619Z,63.30
2023-11-23T12:06:21.741Z,63.10
2023-11-23T12:08:49.887Z,63.10
2023-11-23T12:11:30.277Z,63.10
2023-11-23T12:13:59.198Z,63.20
2023-11-23T12:16:36.227Z,63.40
2023-11-23T12:19:14.793Z,63.60
2023-11-23T12:21:41.865Z,63.80
2023-11-23T12:24:09.063Z,63.70
2023-11-23T12:26:39.054Z,63.70
2023-11-23T12:29:06.007Z,63.70
2023-11-23T12:31:33.819Z,63.20
2023-11-23T12:34:00.862Z,63.00
2023-11-23T12:36:27.860Z,62.70
2023-11-23T12:38:54.870Z,62.70
2023-11-23T12:41:22.654Z,62.50
2023-11-23T12:43:50.614Z,62.20
2023-11-23T12:46:17.766Z,62.10
2023-11-23T12:48:44.983Z,62.10
2023-11-23T12:51:14.330Z,62.00
2023-11-23T12:53:42.107Z,61.80
2023-11-23T12:56:10.571Z,62.00
2023-11-23T12:58:40.419Z,62.20
2023-11-23T13:01:09.156Z,62.20
2023-11-23T13:03:36.251Z,62.20
2023-11-23T13:06:03.843Z,61.80
2023-11-23T13:08:31.080Z,61.80
2023-11-23T13:10:58.003Z,61.50
2023-11-23T13:13:24.950Z,61.60
2023-11-23T13:15:51.907Z,61.80
2023-11-23T13:18:18.957Z,61.80
2023-11-23T13:20:46.699Z,61.80
2023-11-23T13:23:14.258Z,61.60
2023-11-23T13:25:41.145Z,61.50
2023-11-23T13:28:08.132Z,61.20
2023-11-23T13:30:35.072Z,61.20
2023-11-23T13:33:03.785Z,61.30
2023-11-23T13:35:33.350Z,61.40
2023-11-23T13:38:00.365Z,61.30
2023-11-23T13:40:28.668Z,61.20
2023-11-23T13:42:55.729Z,61.10
2023-11-23T13:45:23.990Z,61.10
2023-11-23T13:47:51.773Z,61.10
2023-11-23T13:50:20.144Z,61.20
2023-11-23T13:52:47.118Z,61.30
2023-11-23T13:55:15.178Z,61.40
2023-11-23T13:57:42.165Z,61.60
2023-11-23T14:00:22.983Z,61.60
2023-11-23T14:02:50.555Z,61.70
2023-11-23T14:05:18.057Z,61.80
2023-11-23T14:07:45.194Z,61.90
2023-11-23T14:10:15.259Z,62.00
2023-11-23T14:12:42.344Z,62.10
2023-11-23T14:15:17.337Z,62.10
2023-11-23T14:17:44.591Z,62.20
2023-11-23T14:20:13.668Z,62.10
2023-11-23T14:22:41.210Z,62.00
2023-11-23T14:25:08.815Z,62.10
2023-11-23T14:27:36.297Z,62.30
2023-11-23T14:30:04.457Z,62.40
2023-11-23T14:32:31.493Z,62.30
2023-11-23T14:34:58.865Z,62.30
2023-11-23T14:37:25.860Z,62.50
2023-11-23T14:39:53.554Z,62.60
2023-11-23T14:42:20.749Z,62.70
2023-11-23T14:44:47.967Z,62.70
2023-11-23T14:47:15.277Z,62.80
2023-11-23T14:49:42.560Z,63.00
2023-11-23T14:52:11.727Z,63.00
2023-11-23T14:54:39.463Z,63.20
2023-11-23T14:57:09.217Z,63.30
2023-11-23T14:59:37.627Z,63.30
2023-11-23T15:02:04.997Z,63.30
2023-11-23T15:04:32.730Z,63.40
2023-11-23T15:06:59.898Z,63.40
2023-11-23T15:09:30.457Z,63.50
2023-11-23T15:11:57.846Z,63.60
2023-11-23T15:14:25.056Z,63.60
2023-11-23T15:16:53.065Z,63.70
2023-11-23T15:19:21.372Z,63.80
2023-11-23T15:21:52.513Z,64.00
2023-11-23T15:24:22.517Z,63.90
2023-11-23T15:26:49.787Z,64.00
2023-11-23T15:29:16.730Z,64.00
2023-11-23T15:31:44.629Z,64.10
2023-11-23T15:34:11.879Z,64.20
2023-11-23T15:36:41.925Z,64.30
2023-11-23T15:39:12.474Z,64.30
2023-11-23T15:41:40.179Z,64.40
2023-11-23T15:44:08.641Z,64.40
2023-11-23T15:46:35.647Z,64.50
2023-11-23T15:49:04.787Z,64.50
2023-11-23T15:51:32.850Z,64.60
2023-11-23T15:53:59.977Z,64.60
2023-11-23T15:56:26.975Z,64.70
2023-11-23T15:58:54.044Z,64.80
2023-11-23T16:01:24.681Z,64.90
2023-11-23T16:03:52.264Z,64.90
2023-11-23T16:06:19.293Z,65.00
2023-11-23T16:08:46.556Z,64.90
2023-11-23T16:11:15.314Z,64.80
2023-11-23T16:13:43.954Z,64.90
2023-11-23T16:16:13.668Z,65.00
2023-11-23T16:18:41.230Z,65.10
2023-11-23T16:21:08.317Z,65.20
2023-11-23T16:23:36.350Z,65.20
2023-11-23T16:26:07.272Z,65.10
2023-11-23T16:28:34.270Z,65.20
2023-11-23T16:31:01.376Z,65.30
2023-11-23T16:33:29.905Z,65.30
2023-11-23T16:35:56.882Z,65.30
2023-11-23T16:38:24.031Z,65.30
2023-11-23T16:40:53.162Z,65.30
2023-11-23T16:43:20.553Z,65.30
2023-11-23T16:45:47.956Z,65.50
2023-11-23T16:48:15.989Z,65.60
2023-11-23T16:50:43.698Z,65.90
2023-11-23T16:53:10.749Z,65.90
2023-11-23T16:55:38.863Z,66.00
2023-11-23T16:58:06.519Z,65.90
2023-11-23T17:00:34.273Z,65.90
2023-11-23T17:03:02.149Z,66.00
2023-11-23T17:05:30.604Z,65.90
2023-11-23T17:07:58.201Z,65.80
2023-11-23T17:10:25.810Z,65.90
2023-11-23T17:12:52.882Z,65.90
2023-11-23T17:15:20.399Z,66.00
2023-11-23T17:17:47.651Z,66.00
2023-11-23T17:20:15.086Z,66.10
2023-11-23T17:22:42.849Z,66.10
2023-11-23T17:25:13.028Z,66.20
2023-11-23T17:27:40.471Z,66.20
2023-11-23T17:30:08.089Z,66.20
2023-11-23T17:32:35.703Z,66.20
2023-11-23T17:35:02.905Z,65.90
2023-11-23T17:37:30.234Z,65.70
2023-11-23T17:39:57.854Z,65.70
2023-11-23T17:42:25.120Z,65.70
2023-11-23T17:44:52.076Z,65.50
2023-11-23T17:47:19.013Z,65.50
2023-11-23T17:49:46.308Z,65.40
2023-11-23T17:52:14.932Z,65.40
2023-11-23T17:54:42.467Z,65.20
2023-11-23T17:57:09.758Z,65.10
2023-11-23T17:59:46.851Z,65.00
2023-11-23T18:02:21.437Z,65.00
2023-11-23T18:04:53.421Z,65.00
2023-11-23T18:07:21.113Z,64.90
2023-11-23T18:09:48.415Z,64.90
2023-11-23T18:12:15.447Z,64.80
2023-11-23T18:14:42.465Z,64.80
2023-11-23T18:17:10.400Z,64.70
2023-11-23T18:19:37.409Z,64.40
2023-11-23T18:22:04.571Z,64.20
2023-11-23T18:24:31.739Z,64.00
2023-11-23T18:27:00.893Z,63.90
2023-11-23T18:29:29.302Z,63.80
2023-11-23T18:31:56.390Z,63.60
2023-11-23T18:34:23.569Z,63.50
2023-11-23T18:36:53.406Z,63.30
2023-11-23T18:39:24.227Z,63.30
2023-11-23T18:41:51.646Z,63.10
2023-11-23T18:44:18.688Z,62.90
2023-11-23T18:46:46.015Z,62.80
2023-11-23T18:49:13.397Z,62.80
2023-11-23T18:51:40.616Z,62.80
2023-11-23T18:54:07.824Z,62.90
2023-11-23T18:56:35.632Z,62.80
2023-11-23T18:59:02.839Z,62.80
2023-11-23T19:01:30.061Z,62.80
2023-11-23T19:03:58.590Z,62.90
2023-11-23T19:06:25.800Z,63.00
2023-11-23T19:08:53.071Z,63.00
2023-11-23T19:11:20.214Z,63.00
2023-11-23T19:13:47.330Z,63.10
2023-11-23T19:16:14.318Z,63.10
2023-11-23T19:18:43.314Z,63.10
2023-11-23T19:21:13.904Z,63.00
2023-11-23T19:23:41.081Z,63.00
2023-11-23T19:26:08.239Z,63.00
2023-11-23T19:28:35.213Z,63.00
2023-11-23T19:31:07.470Z,63.00
2023-11-23T19:33:35.994Z,63.00
2023-11-23T19:36:03.977Z,63.00
2023-11-23T19:38:31.286Z,63.10
2023-11-23T19:41:02.763Z,63.10
2023-11-23T19:43:32.941Z,63.10
2023-11-23T19:46:02.456Z,63.20
2023-11-23T19:48:29.818Z,63.40
2023-11-23T19:50:56.946Z,63.50
2023-11-23T19:53:26.883Z,63.60
2023-11-23T19:55:55.163Z,63.60
2023-11-23T19:58:22.244Z,63.70
2023-11-23T20:00:56.325Z,63.80
2023-11-23T20:03:23.317Z,63.80
2023-11-23T20:05:50.817Z,63.80
2023-11-23T20:08:17.953Z,63.90
2023-11-23T20:10:47.052Z,63.90
2023-11-23T20:13:13.958Z,64.30
2023-11-23T20:15:41.158Z,65.70
2023-11-23T20:18:08.331Z,64.90
2023-11-23T20:23:19.763Z,64.20
2023-11-23T20:25:46.839Z,64.30
2023-11-23T20:28:15.727Z,64.40
2023-11-23T20:30:42.954Z,64.50
2023-11-23T20:33:10.217Z,64.50
2023-11-23T20:35:40.371Z,64.70
2023-11-23T20:38:08.301Z,64.60
2023-11-23T20:40:35.269Z,64.70
2023-11-23T20:43:02.531Z,64.60
2023-11-23T20:45:30.296Z,64.60
2023-11-23T20:47:58.459Z,64.70
2023-11-23T20:50:25.942Z,64.70
2023-11-23T20:52:53.145Z,64.70
2023-11-23T20:55:21.054Z,64.70
2023-11-23T20:57:49.085Z,64.90
2023-11-23T21:00:17.122Z,64.90
2023-11-23T21:02:44.839Z,65.10
2023-11-23T21:05:13.081Z,65.30
2023-11-23T21:07:40.364Z,65.30
2023-11-23T21:10:09.098Z,65.50
2023-11-23T21:12:36.565Z,65.60
2023-11-23T21:15:06.781Z,65.70
2023-11-23T21:17:35.802Z,65.70
2023-11-23T21:20:03.153Z,65.80
2023-11-23T21:22:30.999Z,65.80
2023-11-23T21:24:58.112Z,65.80
2023-11-23T21:27:32.969Z,65.90
2023-11-23T21:30:00.402Z,66.00
2023-11-23T21:32:27.327Z,66.00
2023-11-23T21:34:54.560Z,66.00
2023-11-23T21:37:22.439Z,65.90
2023-11-23T21:39:49.518Z,66.00
2023-11-23T21:42:16.599Z,66.00
2023-11-23T21:44:43.659Z,66.00
2023-11-23T21:47:10.732Z,66.00
2023-11-23T21:49:40.115Z,66.10
2023-11-23T21:52:07.077Z,66.20
2023-11-23T21:54:42.271Z,66.20
2023-11-23T21:57:14.011Z,66.20
2023-11-23T21:59:41.034Z,66.30
2023-11-23T22:02:09.193Z,66.40
2023-11-23T22:04:37.325Z,66.50
2023-11-23T22:07:06.014Z,66.50
2023-11-23T22:09:33.080Z,66.70
2023-11-23T22:12:00.164Z,66.60
2023-11-23T22:14:27.256Z,66.60
2023-11-23T22:16:55.429Z,66.60
2023-11-23T22:19:22.763Z,66.60
2023-11-23T22:21:49.995Z,66.50
2023-11-23T22:24:17.837Z,66.40
2023-11-23T22:26:45.074Z,66.50
2023-11-23T22:29:12.029Z,66.40
2023-11-23T22:31:39.917Z,66.40
2023-11-23T22:34:07.825Z,66.30
2023-11-23T22:36:36.779Z,66.10
2023-11-23T22:39:04.155Z,66.10
2023-11-23T22:41:31.264Z,66.00
2023-11-23T22:43:58.367Z,66.10
2023-11-23T22:46:25.655Z,66.10
2023-11-23T22:48:52.670Z,66.20
2023-11-23T22:51:22.383Z,66.10
2023-11-23T22:53:49.398Z,66.20
2023-11-23T22:56:16.365Z,66.10
2023-11-23T22:58:46.284Z,66.00
2023-11-23T23:01:15.100Z,66.00
2023-11-23T23:03:42.489Z,66.00
2023-11-23T23:06:12.607Z,66.00
2023-11-23T23:08:39.886Z,65.90
2023-11-23T23:11:07.137Z,65.80
2023-11-23T23:13:34.091Z,65.80
2023-11-23T23:16:01.241Z,65.80
2023-11-23T23:18:28.340Z,65.80
2023-11-23T23:20:56.338Z,65.80
2023-11-23T23:23:23.266Z,65.90
2023-11-23T23:25:51.410Z,65.70
2023-11-23T23:28:26.247Z,65.60
2023-11-23T23:30:59.157Z,65.70
2023-11-23T23:33:26.324Z,65.70
2023-11-23T23:35:53.594Z,65.80
2023-11-23T23:38:20.549Z,65.80
2023-11-23T23:40:51.410Z,65.80
2023-11-23T23:43:18.758Z,65.70
2023-11-23T23:45:45.931Z,65.60
2023-11-23T23:48:13.084Z,65.60
2023-11-23T23:50:42.231Z,65.50
2023-11-23T23:53:09.337Z,65.50
2023-11-23T23:55:36.354Z,65.40
2023-11-23T23:58:05.697Z,65.40
